createdAt,value
2019-02-06T00:01:21.078Z,45.83
2019-02-06T00:03:49.549Z,46.53
2019-02-06T00:06:18.228Z,46.37
2019-02-06T00:08:46.916Z,44.88
2019-02-06T00:11:15.399Z,46.58
2019-02-06T00:13:44.191Z,48.90
2019-02-06T00:16:12.671Z,44.13
2019-02-06T00:18:41.370Z,49.63
2019-02-06T00:21:09.768Z,49.13
2019-02-06T00:23:38.528Z,47.27
2019-02-06T00:26:07.309Z,49.00
2019-02-06T00:28:35.779Z,49.33
2019-02-06T00:34:12.543Z,47.30
2019-02-06T00:36:41.288Z,50.15
2019-02-06T00:39:09.844Z,47.53
2019-02-06T00:41:38.236Z,50.83
2019-02-06T00:44:06.868Z,47.30
2019-02-06T00:46:35.602Z,48.05
2019-02-06T00:52:12.314Z,51.83
2019-02-06T00:54:40.716Z,49.40
2019-02-06T00:57:09.131Z,55.05
2019-02-06T00:59:37.578Z,51.60
2019-02-06T01:02:05.977Z,54.20
2019-02-06T01:04:34.387Z,51.08
2019-02-06T01:07:02.785Z,52.93
2019-02-06T01:09:31.503Z,50.95
2019-02-06T01:11:59.899Z,50.30
2019-02-06T01:14:28.587Z,49.77
2019-02-06T01:16:57.315Z,50.25
2019-02-06T01:19:25.731Z,53.48
2019-02-06T01:21:54.126Z,50.85
2019-02-06T01:24:41.880Z,56.45
2019-02-06T01:27:31.587Z,54.00
2019-02-06T01:30:00.230Z,53.28
2019-02-06T01:32:30.431Z,53.87
2019-02-06T01:34:59.075Z,50.92
2019-02-06T01:37:27.483Z,52.53
2019-02-06T01:39:56.060Z,52.60
2019-02-06T01:42:24.724Z,53.25
2019-02-06T01:44:53.125Z,52.80
2019-02-06T01:47:21.534Z,53.73
2019-02-06T01:49:49.939Z,51.25
2019-02-06T01:52:18.335Z,58.02
2019-02-06T01:54:46.744Z,49.93
2019-02-06T01:57:15.409Z,53.52
2019-02-06T01:59:43.820Z,51.13
2019-02-06T02:02:12.224Z,50.98
2019-02-06T02:04:40.637Z,52.88
2019-02-06T02:07:09.084Z,53.08
2019-02-06T02:09:37.811Z,50.28
2019-02-06T02:12:07.943Z,49.10
2019-02-06T02:14:36.718Z,51.25
2019-02-06T02:17:05.138Z,51.33
2019-02-06T02:19:33.770Z,52.05
2019-02-06T02:22:02.184Z,50.55
2019-02-06T04:37:06.200Z,39.75
2019-02-06T04:39:27.470Z,44.83
2019-02-06T04:41:56.161Z,42.25
2019-02-06T04:44:24.556Z,44.98
2019-02-06T04:47:04.995Z,44.40
2019-02-06T04:49:33.685Z,43.98
2019-02-06T04:54:58.556Z,43.02
2019-02-06T05:01:01.643Z,42.10
2019-02-06T05:03:30.443Z,44.23
2019-02-06T05:05:59.089Z,43.05
2019-02-06T05:08:27.599Z,43.30
2019-02-06T05:10:55.972Z,43.05
2019-02-06T05:13:24.634Z,45.00
2019-02-06T05:16:12.384Z,44.13
2019-02-06T05:18:40.782Z,41.75
2019-02-06T05:21:09.187Z,42.60
2019-02-06T05:23:37.590Z,43.35
2019-02-06T05:26:05.986Z,43.58
2019-02-06T05:28:34.674Z,42.20
2019-02-06T05:31:03.080Z,42.50
2019-02-06T05:33:33.474Z,42.70
2019-02-06T05:36:01.893Z,44.63
2019-02-06T05:38:30.578Z,42.75
2019-02-06T05:40:58.943Z,44.38
2019-02-06T05:43:27.355Z,42.15
2019-02-06T05:45:55.751Z,42.88
2019-02-06T05:48:24.146Z,42.80
2019-02-06T05:50:53.070Z,42.20
2019-02-06T05:53:21.427Z,44.15
2019-02-06T05:55:50.069Z,41.18
2019-02-06T05:58:18.464Z,44.18
2019-02-06T06:03:26.512Z,44.65
2019-02-06T06:05:54.911Z,41.58
2019-02-06T06:08:23.318Z,42.90
2019-02-06T06:10:51.964Z,41.58
2019-02-06T06:13:20.644Z,42.93
2019-02-06T06:15:49.049Z,40.85
2019-02-06T06:18:17.525Z,42.33
2019-02-06T06:20:45.935Z,41.90
2019-02-06T06:23:14.672Z,42.40
2019-02-06T06:25:43.358Z,42.48
2019-02-06T06:28:11.752Z,41.42
2019-02-06T06:30:40.156Z,42.65
2019-02-06T06:33:08.563Z,43.52
2019-02-06T06:35:36.950Z,39.65
2019-02-06T06:38:05.427Z,43.20
2019-02-06T06:40:33.820Z,42.20
2019-02-06T06:43:02.521Z,42.60
2019-02-06T06:45:30.927Z,42.48
2019-02-06T06:47:59.391Z,39.90
2019-02-06T06:50:27.973Z,41.18
2019-02-06T06:52:56.377Z,41.75
2019-02-06T06:55:26.767Z,40.50
2019-02-06T06:57:55.175Z,39.15
2019-02-06T07:00:42.922Z,42.55
2019-02-06T07:03:11.553Z,41.73
2019-02-06T07:05:39.953Z,38.73
2019-02-06T07:08:12.753Z,43.75
2019-02-06T07:10:38.849Z,38.85
2019-02-06T07:13:07.257Z,42.43
2019-02-06T07:15:36.019Z,41.58
2019-02-06T07:21:18.433Z,40.95
2019-02-06T07:23:46.875Z,39.75
2019-02-06T07:26:15.254Z,39.75
2019-02-06T07:28:43.826Z,39.45
2019-02-06T07:31:12.234Z,39.10
2019-02-06T07:33:40.698Z,37.42
2019-02-06T07:36:09.435Z,38.13
2019-02-06T07:38:37.888Z,38.65
2019-02-06T07:41:06.299Z,37.38
2019-02-06T07:43:34.978Z,37.85
2019-02-06T07:46:45.014Z,39.88
2019-02-06T07:49:13.414Z,40.83
2019-02-06T07:51:41.807Z,36.85
2019-02-06T07:54:10.211Z,39.27
2019-02-06T07:56:38.606Z,37.98
2019-02-06T07:59:07.019Z,41.58
2019-02-06T08:01:35.422Z,40.65
2019-02-06T08:04:04.094Z,39.92
2019-02-06T08:06:32.795Z,41.53
2019-02-06T08:11:52.277Z,38.58
2019-02-06T08:14:20.677Z,37.03
2019-02-06T08:16:49.070Z,39.23
2019-02-06T08:19:17.817Z,40.20
2019-02-06T08:21:49.590Z,39.30
2019-02-06T08:24:16.758Z,37.90
2019-02-06T08:26:45.221Z,39.80
2019-02-06T08:29:13.895Z,39.70
2019-02-06T08:31:42.366Z,38.90
2019-02-06T08:34:11.072Z,39.10
2019-02-06T08:36:39.573Z,38.60
2019-02-06T08:39:48.125Z,38.78
2019-02-06T08:42:16.518Z,39.98
2019-02-06T08:44:46.629Z,37.85
2019-02-06T08:47:15.037Z,40.70
2019-02-06T08:49:43.742Z,41.90
2019-02-06T08:52:12.379Z,38.38
2019-02-06T08:54:41.036Z,38.95
2019-02-06T08:57:09.621Z,40.25
2019-02-06T08:59:38.035Z,40.40
2019-02-06T09:02:06.582Z,41.23
2019-02-06T09:04:34.987Z,39.08
2019-02-06T09:07:03.471Z,40.80
2019-02-06T09:09:32.113Z,41.95
2019-02-06T09:12:00.531Z,38.88
2019-02-06T09:14:29.178Z,39.98
2019-02-06T09:16:59.610Z,41.75
2019-02-06T09:19:28.018Z,41.08
2019-02-06T09:21:56.411Z,37.93
2019-02-06T09:24:24.816Z,40.63
2019-02-06T09:26:53.212Z,40.80
2019-02-06T09:29:21.620Z,38.83
2019-02-06T09:31:50.020Z,42.78
2019-02-06T09:34:18.419Z,40.58
2019-02-06T09:36:46.956Z,41.73
2019-02-06T09:39:15.358Z,41.00
2019-02-06T09:41:43.990Z,43.38
2019-02-06T09:44:12.685Z,40.55
2019-02-06T09:46:53.501Z,42.67
2019-02-06T09:49:21.905Z,39.03
2019-02-06T09:51:50.607Z,39.48
2019-02-06T09:54:19.007Z,41.58
2019-02-06T09:56:50.468Z,40.73
2019-02-06T09:59:17.522Z,38.35
2019-02-06T10:01:46.190Z,39.48
2019-02-06T10:04:14.894Z,40.43
2019-02-06T10:06:43.339Z,38.85
2019-02-06T10:09:22.298Z,39.60
2019-02-06T10:11:42.144Z,39.80
2019-02-06T10:14:10.840Z,37.95
2019-02-06T10:16:58.880Z,41.68
2019-02-06T10:19:27.288Z,40.90
2019-02-06T10:21:55.676Z,39.03
2019-02-06T10:24:24.063Z,38.38
2019-02-06T10:26:52.545Z,40.52
2019-02-06T10:29:20.947Z,37.08
2019-02-06T10:31:49.875Z,37.45
2019-02-06T10:34:18.519Z,34.43
2019-02-06T10:36:47.167Z,37.38
2019-02-06T10:39:16.062Z,36.70
2019-02-06T10:41:44.531Z,36.42
2019-02-06T10:44:32.547Z,36.83
2019-02-06T10:47:00.945Z,36.53
2019-02-06T10:49:29.662Z,37.25
2019-02-06T10:51:58.056Z,38.20
2019-02-06T10:54:26.452Z,37.95
2019-02-06T10:56:54.857Z,36.77
2019-02-06T10:59:23.516Z,38.13
2019-02-06T11:01:51.925Z,35.55
2019-02-06T11:04:20.582Z,34.13
2019-02-06T11:06:49.263Z,34.58
2019-02-06T11:09:17.659Z,35.05
2019-02-06T11:11:46.333Z,35.43
2019-02-06T11:14:14.864Z,36.45
2019-02-06T11:16:44.977Z,34.33
2019-02-06T11:19:13.369Z,36.65
2019-02-06T11:21:42.099Z,35.73
2019-02-06T11:24:10.781Z,39.50
2019-02-06T11:26:39.320Z,34.70
2019-02-06T11:29:08.052Z,35.75
2019-02-06T11:31:36.737Z,36.03
2019-02-06T11:34:05.275Z,34.48
2019-02-06T11:36:34.007Z,33.20
2019-02-06T11:41:38.119Z,35.48
2019-02-06T11:44:25.620Z,33.73
2019-02-06T11:46:54.351Z,34.03
2019-02-06T11:52:12.203Z,33.45
2019-02-06T11:54:41.095Z,34.70
2019-02-06T11:57:09.878Z,34.80
2019-02-06T11:59:38.277Z,34.33
2019-02-06T12:02:06.691Z,32.25
2019-02-06T12:04:35.097Z,33.42
2019-02-06T12:10:09.045Z,34.58
2019-02-06T12:12:28.063Z,34.10
2019-02-06T12:14:56.739Z,33.90
2019-02-06T12:17:25.159Z,34.40
2019-02-06T12:22:41.092Z,34.95
2019-02-06T12:25:49.396Z,33.73
2019-02-06T12:28:17.853Z,33.45
2019-02-06T12:30:46.633Z,36.00
2019-02-06T12:33:15.271Z,33.05
2019-02-06T12:35:43.683Z,32.33
2019-02-06T12:38:12.415Z,33.05
2019-02-06T12:40:40.908Z,32.40
2019-02-06T12:43:10.605Z,33.42
2019-02-06T12:45:39.993Z,34.08
2019-02-06T12:48:08.856Z,32.35
2019-02-06T12:50:37.355Z,31.23
2019-02-06T12:53:05.836Z,32.35
2019-02-06T12:55:53.821Z,32.28
2019-02-06T12:58:22.259Z,31.90
2019-02-06T13:00:51.008Z,31.15
2019-02-06T13:03:19.711Z,29.35
2019-02-06T13:05:48.127Z,31.60
2019-02-06T13:08:17.331Z,31.87
2019-02-06T13:10:46.964Z,29.02
2019-02-06T13:13:17.186Z,30.15
2019-02-06T13:15:47.406Z,30.43
2019-02-06T13:21:03.190Z,29.05
2019-02-06T13:23:50.928Z,29.95
2019-02-06T13:26:19.355Z,30.12
2019-02-06T13:28:47.741Z,27.93
2019-02-06T13:31:16.406Z,25.52
2019-02-06T13:33:44.813Z,27.60
2019-02-06T13:36:13.200Z,26.10
2019-02-06T13:38:41.601Z,26.30
2019-02-06T13:41:10.327Z,26.87
2019-02-06T13:43:39.015Z,24.77
2019-02-06T13:46:07.560Z,24.70
2019-02-06T13:48:36.030Z,26.07
2019-02-06T13:53:59.053Z,25.97
2019-02-06T13:56:27.464Z,23.87
2019-02-06T13:58:55.868Z,22.83
2019-02-06T14:01:25.754Z,21.37
2019-02-06T14:03:54.654Z,22.32
2019-02-06T14:06:23.117Z,19.90
2019-02-06T14:08:51.761Z,17.50
2019-02-06T14:11:20.389Z,17.10
2019-02-06T14:13:48.806Z,17.30
2019-02-06T14:16:17.277Z,15.93
2019-02-06T14:18:46.252Z,14.63
2019-02-06T14:21:14.661Z,15.60
2019-02-06T14:24:23.256Z,17.57
2019-02-06T14:27:30.440Z,17.63
2019-02-06T14:30:37.517Z,17.70
2019-02-06T14:33:46.095Z,19.10
2019-02-06T14:36:54.735Z,15.48
2019-02-06T14:40:01.717Z,15.80
2019-02-06T14:43:08.706Z,15.20
2019-02-06T14:46:15.688Z,17.00
2019-02-06T14:49:22.918Z,19.07
2019-02-06T14:52:31.305Z,18.93
2019-02-06T14:55:39.874Z,19.77
2019-02-06T14:58:48.433Z,16.83
2019-02-06T15:01:56.990Z,18.52
2019-02-06T15:05:05.371Z,18.75
2019-02-06T15:08:13.906Z,16.07
2019-02-06T15:11:21.154Z,16.30
2019-02-06T15:14:30.718Z,14.98
2019-02-06T15:17:37.971Z,16.00
2019-02-06T15:20:46.349Z,14.60
2019-02-06T15:23:54.941Z,14.67
2019-02-06T15:27:02.104Z,14.43
2019-02-06T15:30:10.409Z,14.50
2019-02-06T15:33:17.394Z,15.53
2019-02-06T15:36:24.385Z,13.40
2019-02-06T15:39:32.705Z,15.15
2019-02-06T15:42:39.938Z,15.60
2019-02-06T15:45:46.947Z,15.75
2019-02-06T15:48:55.499Z,16.15
2019-02-06T15:52:04.861Z,18.95
2019-02-06T15:55:11.483Z,19.75
2019-02-06T15:58:20.013Z,20.85
2019-02-06T16:01:09.481Z,20.05
2019-02-06T16:04:35.589Z,20.10
2019-02-06T16:07:43.937Z,23.00
2019-02-06T16:10:50.942Z,24.52
2019-02-06T16:13:59.567Z,24.43
2019-02-06T16:17:06.650Z,24.27
2019-02-06T16:20:13.652Z,27.62
2019-02-06T16:23:21.971Z,23.65
2019-02-06T16:26:28.959Z,24.85
2019-02-06T16:29:37.575Z,26.40
2019-02-06T16:32:44.817Z,24.52
2019-02-06T16:35:52.086Z,24.63
2019-02-06T16:38:59.320Z,27.98
2019-02-06T16:42:07.792Z,27.22
2019-02-06T16:45:15.045Z,27.30
2019-02-06T16:48:23.370Z,26.65
2019-02-06T16:51:30.650Z,28.67
2019-02-06T16:54:37.889Z,26.12
2019-02-06T16:57:45.320Z,25.60
2019-02-06T17:00:53.868Z,24.15
2019-02-06T17:04:00.867Z,24.12
2019-02-06T17:07:09.222Z,26.52
2019-02-06T17:10:16.749Z,28.65
2019-02-06T17:13:25.323Z,28.00
2019-02-06T17:16:32.301Z,26.97
2019-02-06T17:25:42.243Z,28.12
2019-02-06T17:28:50.543Z,28.95
2019-02-06T17:31:57.786Z,30.77
2019-02-06T17:35:06.158Z,28.75
2019-02-06T17:38:13.376Z,28.20
2019-02-06T17:41:21.975Z,29.37
2019-02-06T17:44:29.232Z,27.40
2019-02-06T17:47:37.822Z,27.45
2019-02-06T17:50:46.418Z,28.15
2019-02-06T17:53:53.437Z,27.77
2019-02-06T17:56:22.081Z,30.88
2019-02-06T17:58:50.775Z,31.37
2019-02-06T18:01:59.331Z,26.90
2019-02-06T18:04:27.990Z,31.85
2019-02-06T18:06:56.999Z,32.75
2019-02-06T18:09:25.723Z,30.92
2019-02-06T18:11:54.127Z,31.93
2019-02-06T18:14:22.770Z,33.53
2019-02-06T18:16:51.526Z,32.73
2019-02-06T18:19:19.913Z,29.20
2019-02-06T18:21:48.585Z,34.88
2019-02-06T18:24:17.223Z,31.52
2019-02-06T18:26:45.999Z,31.82
2019-02-06T18:29:14.651Z,32.80
2019-02-06T18:31:43.282Z,32.15
2019-02-06T18:34:12.025Z,33.63
2019-02-06T18:36:40.680Z,33.30
2019-02-06T18:39:48.993Z,35.83
2019-02-06T18:42:17.394Z,33.38
2019-02-06T18:44:45.854Z,36.23
2019-02-06T18:47:14.276Z,34.58
2019-02-06T18:49:44.458Z,36.08
2019-02-06T18:52:20.242Z,35.48
2019-02-06T18:54:43.561Z,34.08
2019-02-06T18:57:12.216Z,35.98
2019-02-06T18:59:40.689Z,33.30
2019-02-06T19:02:09.258Z,33.38
2019-02-06T19:04:37.836Z,35.23
2019-02-06T19:07:06.532Z,34.95
2019-02-06T19:09:35.025Z,34.45
2019-02-06T19:15:18.013Z,35.15
2019-02-06T19:18:26.726Z,35.43
2019-02-06T19:20:55.125Z,38.88
2019-02-06T19:23:23.541Z,37.50
2019-02-06T19:25:53.945Z,37.80
2019-02-06T19:28:22.348Z,38.63
2019-02-06T19:30:50.778Z,39.03
2019-02-06T19:33:19.179Z,38.83
2019-02-06T19:35:47.591Z,40.17
2019-02-06T19:38:16.385Z,37.70
2019-02-06T19:40:44.793Z,37.83
2019-02-06T19:43:13.457Z,36.20
2019-02-06T19:45:41.933Z,38.08
2019-02-06T19:48:16.330Z,40.95
2019-02-06T19:51:20.376Z,39.20
2019-02-06T19:53:49.215Z,38.45
2019-02-06T19:56:17.628Z,37.35
2019-02-06T19:58:46.023Z,37.90
2019-02-06T20:01:14.686Z,38.80
2019-02-06T20:03:43.088Z,38.20
2019-02-06T20:08:47.168Z,39.27
2019-02-06T20:11:15.839Z,37.83
2019-02-06T20:13:44.513Z,40.20
2019-02-06T20:16:13.165Z,38.95
2019-02-06T20:18:41.834Z,39.98
2019-02-06T20:21:10.476Z,39.30
2019-02-06T20:23:39.114Z,38.50
2019-02-06T20:26:07.794Z,38.53
2019-02-06T20:28:37.932Z,39.63
2019-02-06T20:31:06.409Z,39.55
2019-02-06T20:33:35.061Z,41.02
2019-02-06T20:36:03.719Z,40.55
2019-02-06T20:38:32.365Z,40.33
2019-02-06T20:41:00.781Z,38.60
2019-02-06T20:43:30.888Z,40.12
2019-02-06T20:45:59.642Z,38.28
2019-02-06T20:48:28.038Z,40.95
2019-02-06T20:50:56.449Z,39.60
2019-02-06T20:53:24.854Z,41.10
2019-02-06T20:55:53.267Z,41.00
2019-02-06T20:58:21.922Z,45.92
2019-02-06T21:00:50.585Z,41.40
2019-02-06T21:03:18.990Z,42.13
2019-02-06T21:05:47.408Z,44.55
2019-02-06T21:08:16.057Z,40.98
2019-02-06T21:10:44.709Z,41.92
2019-02-06T21:13:13.139Z,40.45
2019-02-06T21:15:41.784Z,44.98
2019-02-06T21:18:10.204Z,40.73
2019-02-06T21:20:39.161Z,44.58
2019-02-06T21:23:07.572Z,41.40
2019-02-06T21:25:36.236Z,38.98
2019-02-06T21:28:04.949Z,38.08
2019-02-06T21:31:13.269Z,38.35
2019-02-06T21:33:41.916Z,41.77
2019-02-06T21:36:10.612Z,41.75
2019-02-06T21:41:21.890Z,42.55
2019-02-06T21:43:50.548Z,41.15
2019-02-06T21:46:18.975Z,39.70
2019-02-06T21:48:47.449Z,43.20
2019-02-06T21:51:16.181Z,40.63
2019-02-06T21:53:44.594Z,43.85
2019-02-06T21:56:13.002Z,40.58
2019-02-06T21:58:41.845Z,41.98
2019-02-06T22:01:10.246Z,43.45
2019-02-06T22:03:38.671Z,44.00
2019-02-06T22:06:07.383Z,38.63
2019-02-06T22:08:35.801Z,40.63
2019-02-06T22:11:04.343Z,40.30
2019-02-06T22:13:34.466Z,39.25
2019-02-06T22:16:02.888Z,38.08
2019-02-06T22:18:31.292Z,40.70
2019-02-06T22:20:59.706Z,42.27
2019-02-06T22:23:28.361Z,40.55
2019-02-06T22:25:56.764Z,40.40
2019-02-06T22:28:25.434Z,40.73
2019-02-06T22:30:53.841Z,39.70
2019-02-06T22:33:22.270Z,40.30
2019-02-06T22:35:50.710Z,39.90
2019-02-06T22:38:19.133Z,39.38
2019-02-06T22:40:47.538Z,40.17
2019-02-06T22:43:15.956Z,41.68
2019-02-06T22:45:46.084Z,38.90
2019-02-06T22:48:14.744Z,41.92
2019-02-06T22:50:43.163Z,41.33
2019-02-06T22:53:11.813Z,40.33
2019-02-06T22:55:40.479Z,40.85
2019-02-06T22:58:08.910Z,40.50
2019-02-06T23:01:19.185Z,38.13
2019-02-06T23:03:47.753Z,37.35
2019-02-06T23:06:35.524Z,38.83
2019-02-06T23:12:12.153Z,36.63
2019-02-06T23:14:40.628Z,37.65
2019-02-06T23:17:09.031Z,35.58
2019-02-06T23:19:37.682Z,35.73
2019-02-06T23:22:06.643Z,34.35
2019-02-06T23:24:35.346Z,34.35
2019-02-06T23:27:05.638Z,33.80
2019-02-06T23:29:34.110Z,34.53
2019-02-06T23:32:02.774Z,34.90
2019-02-06T23:34:31.410Z,34.55
2019-02-06T23:37:00.216Z,37.45
2019-02-06T23:39:28.612Z,34.53
2019-02-06T23:41:59.012Z,37.88
2019-02-06T23:44:29.198Z,38.45
2019-02-06T23:46:58.036Z,36.90
2019-02-06T23:49:26.692Z,36.58
2019-02-06T23:51:55.339Z,37.45
2019-02-06T23:54:23.744Z,37.53
2019-02-06T23:56:54.163Z,36.93
2019-02-06T23:59:22.811Z,37.95
